Terminal Aerodrome Forecast
Issued by NWS

Home | Current Version | Previous Version | Text Only | Print | Product List | Glossary Off
Versions: 1 2 3 4 5 6 7 8 9 10 11 12 13 14 15 16 17 18

000
FTUS43 KABR 212100 AAA
TAFPIR
TAF AMD
KPIR 212150Z 2122/2218 23004KT P6SM OVC250
     FM220200 24006KT P6SM SCT250
     FM221100 18008KT P6SM SCT250=

USA.gov is the U.S. government's official web portal to all federal, state and local government web resources and services.